| time (UTC) | temp C | wind direction | speed KPH | gust KPH | rain 1hr cm | rain 24hr cm | rain mn cm | humidity % | barometer mb |
| 20260506162545 | 13 | 111 | 0.0 | 3.2 | 0.20 | 1.12 | 0.97 | 98 | 1004.9 |
| 20260506162026 | 13 | 97 | 0.0 | 3.2 | 0.18 | 1.09 | 0.94 | 98 | 1004.9 |
| 20260506161559 | 13 | 67 | 0.0 | 3.2 | 0.18 | 1.07 | 0.91 | 99 | 1004.8 |
| 20260506161021 | 13 | 67 | 0.0 | 4.8 | 0.20 | 1.07 | 0.91 | 98 | 1004.8 |
| 20260506160556 | 12 | 66 | 0.0 | 4.8 | 0.20 | 1.04 | 0.89 | 98 | 1004.8 |
| 20260506160019 | 12 | 46 | 0.0 | 4.8 | 0.23 | 1.04 | 0.89 | 98 | 1004.8 |
| 20260506155554 | 12 | 59 | 0.0 | 3.2 | 0.20 | 1.02 | 0.86 | 98 | 1004.8 |
| 20260506155018 | 12 | 96 | 0.0 | 3.2 | 0.20 | 0.99 | 0.84 | 98 | 1004.8 |
| 20260506154555 | 12 | 118 | 0.0 | 3.2 | 0.20 | 0.97 | 0.81 | 98 | 1004.9 |
| 20260506154016 | 12 | 111 | 0.0 | 3.2 | 0.23 | 0.97 | 0.81 | 99 | 1005.0 |
| 20260506153556 | 12 | 79 | 0.0 | 4.8 | 0.20 | 0.94 | 0.81 | 99 | 1004.9 |
| 20260506153033 | 12 | 34 | 0.0 | 4.8 | 0.23 | 0.94 | 0.79 | 99 | 1004.9 |
| 20260506152550 | 12 | 82 | 0.0 | 3.2 | 0.25 | 0.91 | 0.76 | 99 | 1005.1 |
| 20260506152034 | 12 | 91 | 0.0 | 4.8 | 0.28 | 0.91 | 0.76 | 99 | 1005.1 |
| 20260506151508 | 12 | 94 | 1.6 | 4.8 | 0.28 | 0.89 | 0.71 | 99 | 1005.2 |
| 20260506151031 | 12 | 66 | 1.6 | 4.8 | 0.28 | 0.86 | 0.71 | 98 | 1005.2 |
| 20260506150506 | 12 | 90 | 0.0 | 4.8 | 0.28 | 0.84 | 0.69 | 98 | 1005.4 |
| 20260506150023 | 12 | 45 | 0.0 | 4.8 | 0.28 | 0.81 | 0.66 | 98 | 1005.4 |
| 20260506145557 | 12 | 94 | 1.6 | 4.8 | 0.30 | 0.81 | 0.66 | 99 | 1005.5 |
| 20260506145036 | 12 | 101 | 0.0 | 3.2 | 0.28 | 0.79 | 0.64 | 99 | 1005.5 |
| 20260506144522 | 12 | 53 | 0.0 | 3.2 | 0.28 | 0.76 | 0.61 | 99 | 1005.7 |
| 20260506144046 | 12 | 88 | 0.0 | 3.2 | 0.25 | 0.71 | 0.58 | 99 | 1005.7 |
| 20260506143512 | 12 | 306 | 0.0 | 1.6 | 0.28 | 0.71 | 0.58 | 98 | 1005.8 |
| 20260506143045 | 12 | 306 | 0.0 | 1.6 | 0.25 | 0.71 | 0.56 | 99 | 1005.9 |
| 20260506142559 | 11 | 306 | 0.0 | 1.6 | 0.23 | 0.66 | 0.53 | 99 | 1006.0 |
| 20260506142038 | 11 | 306 | 0.0 | 1.6 | 0.20 | 0.64 | 0.48 | 99 | 1006.0 |
| 20260506141525 | 11 | 306 | 0.0 | 1.6 | 0.15 | 0.58 | 0.46 | 98 | 1006.1 |
| 20260506141034 | 11 | 306 | 0.0 | 1.6 | 0.15 | 0.58 | 0.43 | 98 | 1006.1 |
| 20260506140512 | 11 | 306 | 0.0 | 0.0 | 0.15 | 0.56 | 0.41 | 98 | 1006.1 |
| 20260506140032 | 11 | 306 | 0.0 | 1.6 | 0.13 | 0.53 | 0.38 | 98 | 1006.1 |
| 20260506135506 | 11 | 306 | 0.0 | 1.6 | 0.10 | 0.51 | 0.36 | 98 | 1006.2 |
| 20260506135028 | 11 | 306 | 0.0 | 3.2 | 0.10 | 0.51 | 0.36 | 98 | 1006.2 |
| 20260506134504 | 11 | 319 | 0.0 | 3.2 | 0.08 | 0.48 | 0.33 | 98 | 1006.3 |
| 20260506134026 | 11 | 319 | 0.0 | 1.6 | 0.10 | 0.48 | 0.33 | 98 | 1006.2 |
| 20260506133505 | 11 | 319 | 0.0 | 0.0 | 0.08 | 0.46 | 0.30 | 98 | 1006.0 |
| 20260506133054 | 11 | 319 | 0.0 | 1.6 | 0.08 | 0.46 | 0.30 | 98 | 1006.0 |
| 20260506132600 | 11 | 319 | 0.0 | 1.6 | 0.08 | 0.43 | 0.28 | 98 | 1006.0 |
| 20260506132022 | 11 | 319 | 0.0 | 0.0 | 0.10 | 0.43 | 0.28 | 98 | 1006.0 |
| 20260506131615 | 11 | 319 | 0.0 | 1.6 | 0.10 | 0.43 | 0.28 | 98 | 1005.9 |
| 20260506131018 | 11 | 319 | 0.0 | 1.6 | 0.13 | 0.43 | 0.28 | 98 | 1005.9 |
| 20260506130554 | 11 | 319 | 0.0 | 0.0 | 0.10 | 0.41 | 0.25 | 98 | 1005.8 |
| 20260506130016 | 11 | 319 | 0.0 | 0.0 | 0.13 | 0.41 | 0.25 | 98 | 1006.1 |
| 20260506125552 | 11 | 319 | 0.0 | 1.6 | 0.13 | 0.41 | 0.25 | 98 | 1006.3 |
| 20260506125036 | 11 | 319 | 0.0 | 1.6 | 0.15 | 0.41 | 0.25 | 98 | 1006.2 |
| 20260506124553 | 11 | 319 | 0.0 | 1.6 | 0.15 | 0.41 | 0.25 | 98 | 1006.0 |
| 20260506124034 | 11 | 319 | 0.0 | 1.6 | 0.13 | 0.38 | 0.23 | 98 | 1006.2 |
| 20260506123512 | 11 | 309 | 0.0 | 1.6 | 0.15 | 0.38 | 0.23 | 98 | 1006.3 |
| 20260506123034 | 11 | 294 | 0.0 | 0.0 | 0.13 | 0.36 | 0.23 | 98 | 1006.5 |
| 20260506122510 | 11 | 294 | 0.0 | 3.2 | 0.13 | 0.36 | 0.20 | 97 | 1006.5 |
| 20260506122030 | 11 | 304 | 0.0 | 1.6 | 0.13 | 0.33 | 0.20 | 98 | 1006.6 |
| 20260506121512 | 11 | 311 | 0.0 | 1.6 | 0.13 | 0.33 | 0.18 | 97 | 1006.3 |
| 20260506121030 | 11 | 293 | 0.0 | 1.6 | 0.10 | 0.30 | 0.15 | 97 | 1006.4 |
| 20260506120508 | 11 | 293 | 0.0 | 3.2 | 0.13 | 0.30 | 0.15 | 97 | 1006.5 |
| 20260506120047 | 11 | 293 | 0.0 | 3.2 | 0.10 | 0.28 | 0.13 | 97 | 1006.6 |
| 20260506115547 | 11 | 337 | 0.0 | 1.6 | 0.10 | 0.28 | 0.13 | 97 | 1006.5 |
| 20260506115028 | 11 | 306 | 0.0 | 3.2 | 0.08 | 0.25 | 0.10 | 97 | 1006.7 |
| 20260506114548 | 11 | 306 | 1.6 | 4.8 | 0.08 | 0.25 | 0.10 | 97 | 1006.8 |
| 20260506114030 | 11 | 288 | 0.0 | 4.8 | 0.08 | 0.25 | 0.10 | 97 | 1006.6 |
| 20260506113600 | 11 | 334 | 0.0 | 3.2 | 0.08 | 0.23 | 0.08 | 97 | 1006.5 |
| 20260506113506 | 10 | 286 | 0.0 | 3.2 | 0.08 | 0.23 | 0.08 | 97 | 1006.5 |
| 20260506113026 | 11 | 269 | 0.0 | 3.2 | 0.08 | 0.23 | 0.08 | 97 | 1006.9 |
| 20260506112504 | 10 | 268 | 0.0 | 1.6 | 0.08 | 0.23 | 0.08 | 97 | 1006.7 |
| 20260506112024 | 10 | 266 | 0.0 | 1.6 | 0.05 | 0.20 | 0.05 | 97 | 1006.6 |
| 20260506111600 | 10 | 266 | 0.0 | 1.6 | 0.05 | 0.20 | 0.05 | 96 | 1006.6 |
| 20260506111504 | 10 | 266 | 0.0 | 1.6 | 0.05 | 0.20 | 0.05 | 96 | 1006.5 |
| 20260506111027 | 10 | 266 | 0.0 | 0.0 | 0.03 | 0.18 | 0.05 | 96 | 1006.5 |
| 20260506110558 | 10 | 266 | 0.0 | 1.6 | 0.03 | 0.18 | 0.03 | 96 | 1006.6 |
| 20260506110020 | 10 | 266 | 0.0 | 1.6 | 0.03 | 0.18 | 0.03 | 96 | 1006.4 |
| 20260506105550 | 10 | 266 | 0.0 | 0.0 | 0.03 | 0.18 | 0.03 | 96 | 1006.3 |
| 20260506105011 | 10 | 266 | 0.0 | 0.0 | 0.03 | 0.18 | 0.03 | 96 | 1006.2 |
| 20260506104602 | 10 | 266 | 0.0 | 0.0 | 0.03 | 0.18 | 0.03 | 96 | 1006.3 |
| 20260506104024 | 10 | 266 | 0.0 | 0.0 | 0.03 | 0.18 | 0.03 | 96 | 1006.4 |
| 20260506103506 | 10 | 266 | 0.0 | 1.6 | 0.00 | 0.15 | 0.00 | 96 | 1006.4 |
| 20260506103038 | 10 | 266 | 0.0 | 1.6 | 0.00 | 0.15 | 0.00 | 96 | 1006.5 |
| 20260506102600 | 10 | 266 | 0.0 | 1.6 | 0.00 | 0.15 | 0.00 | 96 | 1006.5 |
| 20260506102502 | 10 | 266 | 0.0 | 1.6 | 0.00 | 0.15 | 0.00 | 95 | 1006.4 |
| 20260506102024 | 10 | 303 | 0.0 | 9.7 | 0.00 | 0.15 | 0.00 | 95 | 1006.3 |
| 20260506101558 | 10 | 303 | 0.0 | 9.7 | 0.00 | 0.15 | 0.00 | 95 | 1006.1 |
| 20260506101020 | 10 | 266 | 1.6 | 3.2 | 0.00 | 0.15 | 0.00 | 95 | 1006.2 |
| 20260506100557 | 10 | 299 | 1.6 | 3.2 | 0.00 | 0.15 | 0.00 | 95 | 1006.6 |
| 20260506100014 | 10 | 303 | 1.6 | 4.8 | 0.00 | 0.15 | 0.00 | 94 | 1006.8 |
| 20260506095548 | 10 | 323 | 1.6 | 4.8 | 0.00 | 0.15 | 0.00 | 94 | 1006.7 |
| 20260506095010 | 10 | 296 | 0.0 | 1.6 | 0.00 | 0.15 | 0.00 | 94 | 1006.5 |
| 20260506094546 | 10 | 269 | 0.0 | 0.0 | 0.00 | 0.15 | 0.00 | 94 | 1006.1 |
| 20260506094010 | 10 | 277 | 0.0 | 0.0 | 0.00 | 0.15 | 0.00 | 94 | 1006.3 |
| 20260506093544 | 10 | 277 | 0.0 | 0.0 | 0.00 | 0.15 | 0.00 | 94 | 1006.3 |
| 20260506093018 | 11 | 277 | 0.0 | 0.0 | 0.00 | 0.15 | 0.00 | 94 | 1006.1 |
| 20260506092544 | 11 | 277 | 0.0 | 0.0 | 0.00 | 0.15 | 0.00 | 94 | 1006.2 |
| 20260506092008 | 11 | 277 | 0.0 | 0.0 | 0.00 | 0.15 | 0.00 | 94 | 1006.2 |
| 20260506091543 | 11 | 277 | 0.0 | 0.0 | 0.00 | 0.15 | 0.00 | 93 | 1006.1 |
| 20260506091017 | 11 | 277 | 0.0 | 0.0 | 0.00 | 0.15 | 0.00 | 93 | 1006.0 |
| 20260506090536 | 11 | 277 | 0.0 | 0.0 | 0.00 | 0.15 | 0.00 | 93 | 1006.1 |
| 20260506090016 | 11 | 277 | 0.0 | 3.2 | 0.00 | 0.15 | 0.00 | 93 | 1006.2 |
| 20260506085550 | 11 | 277 | 0.0 | 3.2 | 0.00 | 0.15 | 0.00 | 93 | 1006.4 |
| 20260506085015 | 11 | 273 | 0.0 | 0.0 | 0.00 | 0.15 | 0.00 | 93 | 1006.5 |
| 20260506084617 | 11 | 273 | 0.0 | 0.0 | 0.00 | 0.15 | 0.00 | 93 | 1006.5 |
| 20260506084017 | 11 | 273 | 0.0 | 0.0 | 0.00 | 0.15 | 0.00 | 93 | 1006.3 |
| 20260506083546 | 11 | 273 | 0.0 | 0.0 | 0.00 | 0.15 | 0.00 | 93 | 1006.2 |
| 20260506083022 | 11 | 273 | 0.0 | 0.0 | 0.00 | 0.15 | 0.00 | 93 | 1006.4 |
| 20260506082541 | 11 | 273 | 0.0 | 1.6 | 0.00 | 0.15 | 0.00 | 93 | 1006.6 |
| 20260506082019 | 11 | 273 | 0.0 | 1.6 | 0.00 | 0.15 | 0.00 | 92 | 1006.8 |
| 20260506081550 | 11 | 273 | 0.0 | 3.2 | 0.00 | 0.15 | 0.00 | 92 | 1006.6 |
| 20260506081018 | 11 | 273 | 0.0 | 3.2 | 0.00 | 0.15 | 0.00 | 92 | 1006.6 |
| 20260506080557 | 11 | 251 | 0.0 | 0.0 | 0.00 | 0.15 | 0.00 | 92 | 1006.9 |
| 20260506073038 | 11 | 250 | 0.0 | 0.0 | 0.00 | 0.15 | 0.00 | 92 | 1007.2 |
| 20260506072555 | 11 | 250 | 0.0 | 0.0 | 0.00 | 0.15 | 0.00 | 91 | 1007.1 |
| 20260506072017 | 11 | 250 | 0.0 | 0.0 | 0.00 | 0.15 | 0.00 | 91 | 1007.2 |
| 20260506071557 | 11 | 250 | 0.0 | 0.0 | 0.00 | 0.15 | 0.00 | 91 | 1007.3 |
| 20260506071015 | 11 | 250 | 0.0 | 0.0 | 0.00 | 0.15 | 0.00 | 91 | 1007.3 |
| 20260506070549 | 11 | 250 | 0.0 | 0.0 | 0.00 | 0.15 | 0.00 | 91 | 1007.2 |
| 20260506062017 | 11 | 288 | 0.0 | 4.8 | 0.00 | 0.15 | 0.00 | 90 | 1007.3 |
| 20260506061537 | 11 | 262 | 1.6 | 6.4 | 0.00 | 0.15 | 0.00 | 90 | 1007.3 |
| 20260506061016 | 11 | 261 | 0.0 | 6.4 | 0.00 | 0.15 | 0.00 | 90 | 1007.5 |
| 20260506060535 | 11 | 277 | 0.0 | 4.8 | 0.00 | 0.15 | 0.00 | 90 | 1007.3 |
| 20260506051043 | 12 | 255 | 0.0 | 4.8 | 0.00 | 0.15 | 0.00 | 90 | 1007.6 |
| 20260506050523 | 12 | 276 | 0.0 | 4.8 | 0.00 | 0.15 | 0.00 | 89 | 1007.6 |
| 20260506050103 | 12 | 275 | 0.0 | 4.8 | 0.00 | 0.15 | 0.00 | 89 | 1007.5 |
| 20260506045051 | 12 | 311 | 1.6 | 6.4 | 0.00 | 0.15 | 0.00 | 89 | 1007.3 |
| 20260506044537 | 12 | 307 | 0.0 | 9.7 | 0.00 | 0.15 | 0.00 | 89 | 1007.9 |
| 20260506044008 | 12 | 307 | 0.0 | 1.6 | 0.00 | 0.15 | 0.00 | 89 | 1007.8 |
| 20260506043544 | 12 | 285 | 0.0 | 1.6 | 0.00 | 0.15 | 0.00 | 89 | 1007.8 |
| 20260506043020 | 12 | 272 | 0.0 | 8.0 | 0.00 | 0.15 | 0.00 | 89 | 1007.8 |
| 20260506042539 | 12 | 281 | 0.0 | 8.0 | 0.00 | 0.15 | 0.00 | 88 | 1008.0 |
| 20260506042018 | 12 | 276 | 0.0 | 4.8 | 0.00 | 0.15 | 0.00 | 88 | 1008.1 |
| 20260506041605 | 12 | 272 | 0.0 | 4.8 | 0.00 | 0.15 | 0.00 | 87 | 1008.1 |
| 20260506041032 | 12 | 279 | 0.0 | 1.6 | 0.00 | 0.15 | 0.00 | 87 | 1008.1 |
| 20260506040509 | 13 | 274 | 0.0 | 4.8 | 0.00 | 0.15 | 0.00 | 87 | 1008.3 |
| 20260506040043 | 13 | 266 | 0.0 | 6.4 | 0.00 | 0.15 | 0.15 | 87 | 1008.2 |
| 20260506035559 | 13 | 284 | 1.6 | 6.4 | 0.00 | 0.15 | 0.15 | 87 | 1008.5 |
| 20260506035501 | 13 | 309 | 0.0 | 6.4 | 0.00 | 0.15 | 0.15 | 87 | 1008.5 |
| 20260506035039 | 13 | 261 | 1.6 | 4.8 | 0.00 | 0.15 | 0.15 | 87 | 1008.3 |
| 20260506034557 | 13 | 274 | 1.6 | 6.4 | 0.00 | 0.15 | 0.15 | 87 | 1008.2 |
| 20260506034036 | 13 | 289 | 0.0 | 12.9 | 0.00 | 0.15 | 0.15 | 87 | 1008.1 |
| 20260506033550 | 13 | 287 | 1.6 | 12.9 | 0.00 | 0.15 | 0.15 | 87 | 1008.1 |
| 20260506033031 | 13 | 5 | 0.0 | 12.9 | 0.00 | 0.15 | 0.15 | 88 | 1007.9 |
| 20260506032509 | 13 | 310 | 1.6 | 11.3 | 0.00 | 0.15 | 0.15 | 88 | 1008.0 |
| 20260506032030 | 13 | 332 | 1.6 | 11.3 | 0.00 | 0.15 | 0.15 | 88 | 1008.1 |
| 20260506031505 | 13 | 338 | 3.2 | 11.3 | 0.00 | 0.15 | 0.15 | 88 | 1007.9 |
| 20260506031043 | 13 | 318 | 1.6 | 11.3 | 0.00 | 0.15 | 0.15 | 88 | 1007.8 |
| 20260506030601 | 13 | 285 | 1.6 | 11.3 | 0.00 | 0.15 | 0.15 | 88 | 1008.1 |
| 20260506030501 | 13 | 234 | 1.6 | 6.4 | 0.00 | 0.15 | 0.15 | 88 | 1008.0 |
| 20260506030040 | 13 | 256 | 1.6 | 4.8 | 0.00 | 0.15 | 0.15 | 88 | 1007.7 |
| 20260506025558 | 13 | 315 | 1.6 | 12.9 | 0.00 | 0.15 | 0.15 | 88 | 1007.7 |
| 20260506025500 | 13 | 288 | 1.6 | 12.9 | 0.00 | 0.15 | 0.15 | 88 | 1007.7 |
| 20260506025042 | 13 | 5 | 3.2 | 12.9 | 0.00 | 0.15 | 0.15 | 88 | 1007.7 |
| 20260506024556 | 14 | 322 | 1.6 | 12.9 | 0.00 | 0.15 | 0.15 | 89 | 1007.6 |
| 20260506024040 | 14 | 286 | 3.2 | 14.5 | 0.00 | 0.15 | 0.15 | 89 | 1007.6 |
| 20260506023521 | 14 | 280 | 6.4 | 14.5 | 0.00 | 0.15 | 0.15 | 90 | 1007.7 |
| 20260506023106 | 14 | 263 | 6.4 | 12.9 | 0.00 | 0.15 | 0.15 | 91 | 1007.7 |
| 20260506022536 | 14 | 286 | 1.6 | 11.3 | 0.00 | 0.15 | 0.15 | 92 | 1007.6 |
| 20260506022017 | 14 | 279 | 3.2 | 11.3 | 0.00 | 0.15 | 0.15 | 93 | 1007.6 |
| 20260506021607 | 14 | 319 | 0.0 | 6.4 | 0.00 | 0.15 | 0.15 | 95 | 1007.6 |
| 20260506021025 | 15 | 281 | 0.0 | 6.4 | 0.00 | 0.15 | 0.15 | 96 | 1007.5 |
| 20260506020558 | 15 | 268 | 0.0 | 4.8 | 0.00 | 0.15 | 0.15 | 97 | 1007.4 |
| 20260506020036 | 15 | 284 | 1.6 | 4.8 | 0.00 | 0.15 | 0.15 | 97 | 1007.4 |
| 20260506015513 | 14 | 302 | 0.0 | 4.8 | 0.00 | 0.15 | 0.15 | 96 | 1007.3 |
| 20260506015051 | 14 | 11 | 0.0 | 1.6 | 0.00 | 0.15 | 0.15 | 96 | 1007.3 |
| 20260506014529 | 15 | 11 | 0.0 | 0.0 | 0.00 | 0.15 | 0.15 | 96 | 1007.0 |
| 20260506014008 | 15 | 11 | 0.0 | 0.0 | 0.00 | 0.15 | 0.15 | 96 | 1007.0 |
| 20260506013544 | 15 | 11 | 0.0 | 0.0 | 0.00 | 0.15 | 0.15 | 96 | 1006.8 |
| 20260506013019 | 15 | 11 | 0.0 | 0.0 | 0.03 | 0.15 | 0.15 | 96 | 1006.6 |
| 20260506012551 | 15 | 11 | 0.0 | 0.0 | 0.03 | 0.15 | 0.15 | 96 | 1006.4 |
| 20260506012031 | 15 | 11 | 0.0 | 0.0 | 0.03 | 0.15 | 0.15 | 95 | 1006.1 |
| 20260506011512 | 15 | 11 | 0.0 | 0.0 | 0.03 | 0.15 | 0.15 | 95 | 1006.3 |
| 20260506011044 | 15 | 11 | 0.0 | 0.0 | 0.03 | 0.15 | 0.15 | 95 | 1006.1 |
| 20260506010532 | 15 | 11 | 0.0 | 0.0 | 0.03 | 0.15 | 0.15 | 95 | 1005.9 |
| 20260506010046 | 15 | 11 | 0.0 | 0.0 | 0.03 | 0.15 | 0.15 | 95 | 1005.6 |
| 20260506005523 | 15 | 11 | 0.0 | 1.6 | 0.03 | 0.15 | 0.15 | 95 | 1005.6 |
| 20260506005051 | 15 | 11 | 0.0 | 1.6 | 0.03 | 0.15 | 0.15 | 95 | 1005.6 |
| 20260506004528 | 15 | 11 | 0.0 | 1.6 | 0.03 | 0.15 | 0.15 | 95 | 1005.7 |
| 20260506004006 | 15 | 11 | 0.0 | 3.2 | 0.03 | 0.15 | 0.15 | 95 | 1005.7 |
| 20260506003542 | 15 | 11 | 0.0 | 3.2 | 0.03 | 0.15 | 0.15 | 95 | 1005.6 |
| 20260506003059 | 15 | 273 | 0.0 | 0.0 | 0.00 | 0.13 | 0.13 | 95 | 1006.1 |
| 20260506002538 | 15 | 273 | 0.0 | 0.0 | 0.00 | 0.13 | 0.13 | 95 | 1006.0 |
| 20260506002055 | 15 | 273 | 0.0 | 0.0 | 0.00 | 0.13 | 0.13 | 94 | 1006.0 |
| 20260506001536 | 15 | 273 | 0.0 | 0.0 | 0.00 | 0.13 | 0.13 | 94 | 1005.8 |
| 20260506001050 | 15 | 273 | 0.0 | 0.0 | 0.00 | 0.13 | 0.13 | 94 | 1005.5 |
| 20260506000532 | 15 | 273 | 0.0 | 1.6 | 0.00 | 0.13 | 0.13 | 93 | 1005.4 |
| 20260506000049 | 15 | 273 | 0.0 | 1.6 | 0.00 | 0.13 | 0.13 | 93 | 1005.4 |
| 20260505235523 | 15 | 273 | 0.0 | 1.6 | 0.00 | 0.13 | 0.13 | 93 | 1005.4 |
| 20260505235044 | 15 | 273 | 0.0 | 0.0 | 0.00 | 0.13 | 0.13 | 92 | 1005.4 |
| 20260505234525 | 16 | 273 | 0.0 | 0.0 | 0.00 | 0.13 | 0.13 | 92 | 1005.3 |
| 20260505234057 | 16 | 273 | 0.0 | 0.0 | 0.00 | 0.13 | 0.13 | 92 | 1005.2 |
| 20260505233535 | 16 | 273 | 0.0 | 0.0 | 0.00 | 0.13 | 0.13 | 93 | 1005.1 |
| 20260505233010 | 16 | 273 | 0.0 | 1.6 | 0.00 | 0.13 | 0.13 | 92 | 1005.1 |
| 20260505232524 | 16 | 273 | 0.0 | 0.0 | 0.00 | 0.13 | 0.13 | 92 | 1004.8 |
| 20260505232059 | 16 | 273 | 0.0 | 0.0 | 0.00 | 0.13 | 0.13 | 92 | 1004.8 |
| 20260505231554 | 16 | 273 | 0.0 | 0.0 | 0.00 | 0.13 | 0.13 | 92 | 1004.7 |
| 20260505231056 | 16 | 273 | 0.0 | 1.6 | 0.00 | 0.13 | 0.13 | 92 | 1004.7 |
| 20260505230538 | 16 | 273 | 0.0 | 1.6 | 0.00 | 0.13 | 0.13 | 92 | 1004.7 |
| 20260505230052 | 16 | 273 | 0.0 | 0.0 | 0.00 | 0.13 | 0.13 | 92 | 1004.5 |
| 20260505225531 | 16 | 273 | 0.0 | 0.0 | 0.03 | 0.13 | 0.13 | 93 | 1004.4 |
| 20260505225014 | 16 | 273 | 0.0 | 0.0 | 0.05 | 0.13 | 0.13 | 93 | 1004.4 |
| 20260505224542 | 16 | 273 | 0.0 | 0.0 | 0.05 | 0.13 | 0.13 | 93 | 1004.5 |
| 20260505224018 | 16 | 273 | 0.0 | 1.6 | 0.13 | 0.13 | 0.13 | 93 | 1004.6 |
| 20260505223538 | 15 | 273 | 0.0 | 1.6 | 0.13 | 0.13 | 0.13 | 93 | 1004.5 |
| 20260505223058 | 15 | 273 | 0.0 | 3.2 | 0.13 | 0.13 | 0.13 | 92 | 1004.5 |
| 20260505222542 | 15 | 273 | 0.0 | 3.2 | 0.13 | 0.13 | 0.13 | 92 | 1004.6 |
| 20260505222056 | 15 | 265 | 0.0 | 1.6 | 0.13 | 0.13 | 0.13 | 92 | 1004.7 |
| 20260505221535 | 15 | 269 | 0.0 | 1.6 | 0.13 | 0.13 | 0.13 | 92 | 1004.8 |
| 20260505221015 | 15 | 269 | 0.0 | 3.2 | 0.13 | 0.13 | 0.13 | 91 | 1004.9 |
| 20260505220534 | 15 | 275 | 0.0 | 4.8 | 0.13 | 0.13 | 0.13 | 91 | 1005.2 |
| 20260505220012 | 15 | 300 | 0.0 | 4.8 | 0.13 | 0.13 | 0.13 | 90 | 1005.4 |
| 20260505215534 | 16 | 331 | 0.0 | 14.5 | 0.10 | 0.10 | 0.10 | 89 | 1005.4 |
| 20260505215008 | 16 | 291 | 1.6 | 20.9 | 0.08 | 0.08 | 0.08 | 88 | 1005.6 |
| 20260505214535 | 16 | 314 | 3.2 | 20.9 | 0.05 | 0.05 | 0.08 | 86 | 1005.7 |
| 20260505214004 | 16 | 355 | 3.2 | 16.1 | 0.00 | 0.00 | 0.00 | 84 | 1006.1 |
| 20260505213541 | 16 | 279 | 4.8 | 19.3 | 0.00 | 0.00 | 0.00 | 82 | 1006.1 |
| 20260505213058 | 17 | 252 | 6.4 | 19.3 | 0.00 | 0.00 | 0.00 | 79 | 1005.8 |
| 20260505213002 | 17 | 272 | 4.8 | 14.5 | 0.00 | 0.00 | 0.00 | 79 | 1005.8 |
| 20260505212540 | 17 | 303 | 3.2 | 16.1 | 0.00 | 0.00 | 0.00 | 76 | 1005.4 |
| 20260505212100 | 17 | 348 | 4.8 | 16.1 | 0.00 | 0.00 | 0.00 | 75 | 1005.1 |
| 20260505212002 | 17 | 340 | 4.8 | 14.5 | 0.00 | 0.00 | 0.00 | 75 | 1005.0 |
| 20260505211522 | 18 | 249 | 1.6 | 12.9 | 0.00 | 0.00 | 0.00 | 74 | 1004.8 |
| 20260505211058 | 18 | 292 | 1.6 | 8.0 | 0.00 | 0.00 | 0.00 | 72 | 1004.3 |
| 20260505210537 | 18 | 293 | 3.2 | 8.0 | 0.00 | 0.00 | 0.00 | 72 | 1004.1 |
| 20260505210052 | 18 | 288 | 3.2 | 16.1 | 0.00 | 0.00 | 0.00 | 71 | 1004.0 |
| 20260505205518 | 19 | 291 | 4.8 | 16.1 | 0.00 | 0.00 | 0.00 | 68 | 1004.1 |
| 20260505205050 | 19 | 5 | 3.2 | 25.7 | 0.00 | 0.00 | 0.00 | 66 | 1004.2 |
| 20260505204534 | 20 | 314 | 6.4 | 25.7 | 0.00 | 0.00 | 0.00 | 64 | 1004.2 |
| 20260505204045 | 20 | 360 | 6.4 | 24.1 | 0.00 | 0.00 | 0.00 | 64 | 1004.4 |
| 20260505203508 | 21 | 309 | 6.4 | 22.5 | 0.00 | 0.00 | 0.00 | 64 | 1004.2 |
| 20260505203101 | 21 | 25 | 6.4 | 24.1 | 0.00 | 0.00 | 0.00 | 63 | 1003.8 |
| 20260505202518 | 21 | 13 | 4.8 | 24.1 | 0.00 | 0.00 | 0.00 | 62 | 1003.4 |
| 20260505202038 | 22 | 323 | 3.2 | 17.7 | 0.00 | 0.00 | 0.00 | 61 | 1002.6 |
| 20260505201528 | 22 | 9 | 3.2 | 6.4 | 0.00 | 0.00 | 0.00 | 61 | 1002.4 |
| 20260505201036 | 22 | 284 | 1.6 | 8.0 | 0.00 | 0.00 | 0.00 | 64 | 1002.3 |
| 20260505200510 | 21 | 344 | 1.6 | 8.0 | 0.00 | 0.00 | 0.00 | 63 | 1002.5 |
| 20260505200029 | 21 | 304 | 3.2 | 6.4 | 0.00 | 0.00 | 0.00 | 64 | 1002.4 |
| 20260505195505 | 21 | 327 | 0.0 | 12.9 | 0.00 | 0.00 | 0.00 | 64 | 1002.5 |
| 20260505195027 | 21 | 273 | 4.8 | 12.9 | 0.00 | 0.00 | 0.00 | 65 | 1002.5 |
| 20260505194504 | 21 | 301 | 3.2 | 9.7 | 0.00 | 0.00 | 0.00 | 69 | 1002.7 |
| 20260505194043 | 20 | 308 | 1.6 | 9.7 | 0.00 | 0.00 | 0.00 | 66 | 1002.8 |
| 20260505193558 | 20 | 315 | 1.6 | 16.1 | 0.00 | 0.00 | 0.00 | 68 | 1002.6 |
| 20260505193029 | 21 | 290 | 4.8 | 16.1 | 0.00 | 0.00 | 0.00 | 65 | 1002.3 |
| 20260505192554 | 21 | 351 | 3.2 | 30.6 | 0.00 | 0.00 | 0.00 | 63 | 1002.7 |
| 20260505192016 | 22 | 350 | 6.4 | 30.6 | 0.00 | 0.00 | 0.00 | 58 | 1003.3 |
| 20260505191602 | 23 | 335 | 9.7 | 30.6 | 0.00 | 0.00 | 0.00 | 53 | 1003.5 |
| 20260505191011 | 23 | 316 | 3.2 | 17.7 | 0.00 | 0.00 | 0.00 | 48 | 1003.0 |
| 20260505190546 | 24 | 355 | 3.2 | 27.4 | 0.00 | 0.00 | 0.00 | 46 | 1002.4 |
| 20260505190059 | 24 | 334 | 11.3 | 27.4 | 0.00 | 0.00 | 0.00 | 44 | 1002.3 |
| 20260505190012 | 24 | 292 | 11.3 | 27.4 | 0.00 | 0.00 | 0.00 | 45 | 1002.2 |
| 20260505185542 | 25 | 261 | 4.8 | 24.1 | 0.00 | 0.00 | 0.00 | 45 | 1002.5 |
| 20260505185018 | 25 | 5 | 11.3 | 22.5 | 0.00 | 0.00 | 0.00 | 40 | 1002.4 |
| 20260505184537 | 25 | 302 | 3.2 | 19.3 | 0.00 | 0.00 | 0.00 | 39 | 1002.2 |
| 20260505184015 | 25 | 290 | 6.4 | 20.9 | 0.00 | 0.00 | 0.00 | 40 | 1002.2 |
| 20260505183537 | 26 | 267 | 11.3 | 19.3 | 0.00 | 0.00 | 0.00 | 39 | 1002.1 |
| 20260505183018 | 26 | 266 | 8.0 | 25.7 | 0.00 | 0.00 | 0.00 | 39 | 1002.0 |
| 20260505182533 | 26 | 251 | 11.3 | 24.1 | 0.00 | 0.00 | 0.00 | 38 | 1002.0 |
| 20260505182012 | 26 | 286 | 6.4 | 19.3 | 0.00 | 0.00 | 0.00 | 38 | 1001.9 |
| 20260505181547 | 26 | 279 | 8.0 | 20.9 | 0.00 | 0.00 | 0.00 | 39 | 1002.0 |
| 20260505181004 | 26 | 321 | 8.0 | 24.1 | 0.00 | 0.00 | 0.00 | 39 | 1002.2 |
| 20260505180525 | 26 | 266 | 11.3 | 32.2 | 0.00 | 0.00 | 0.00 | 37 | 1002.2 |
| 20260505180002 | 26 | 280 | 14.5 | 37.0 | 0.00 | 0.00 | 0.00 | 35 | 1002.2 |
| 20260505175537 | 26 | 282 | 14.5 | 37.0 | 0.00 | 0.00 | 0.00 | 35 | 1002.2 |
| 20260505175054 | 26 | 242 | 16.1 | 32.2 | 0.00 | 0.00 | 0.00 | 36 | 1002.2 |
| 20260505174540 | 26 | 302 | 14.5 | 30.6 | 0.00 | 0.00 | 0.00 | 37 | 1002.2 |
| 20260505174052 | 27 | 344 | 11.3 | 27.4 | 0.00 | 0.00 | 0.00 | 40 | 1002.1 |
| 20260505173532 | 27 | 269 | 8.0 | 27.4 | 0.00 | 0.00 | 0.00 | 38 | 1002.4 |
| 20260505173054 | 27 | 263 | 8.0 | 27.4 | 0.00 | 0.00 | 0.00 | 37 | 1002.4 |
| 20260505172531 | 27 | 262 | 8.0 | 27.4 | 0.00 | 0.00 | 0.00 | 37 | 1002.5 |
| 20260505172043 | 27 | 306 | 8.0 | 29.0 | 0.00 | 0.00 | 0.00 | 38 | 1002.7 |
| 20260505171519 | 27 | 269 | 11.3 | 27.4 | 0.00 | 0.00 | 0.00 | 37 | 1002.7 |
| 20260505171038 | 27 | 236 | 14.5 | 27.4 | 0.00 | 0.00 | 0.00 | 37 | 1002.6 |
| 20260505170518 | 27 | 250 | 11.3 | 29.0 | 0.00 | 0.00 | 0.00 | 37 | 1002.9 |
| 20260505170107 | 26 | 295 | 12.9 | 29.0 | 0.00 | 0.00 | 0.00 | 39 | 1002.9 |
| 20260505165532 | 27 | 281 | 6.4 | 29.0 | 0.00 | 0.00 | 0.00 | 40 | 1003.0 |
| 20260505165047 | 26 | 221 | 11.3 | 29.0 | 0.00 | 0.00 | 0.00 | 38 | 1003.1 |
| 20260505164526 | 26 | 187 | 4.8 | 24.1 | 0.00 | 0.00 | 0.00 | 39 | 1003.0 |
| 20260505164005 | 26 | 258 | 6.4 | 20.9 | 0.00 | 0.00 | 0.00 | 40 | 1003.2 |
| 20260505163535 | 26 | 261 | 4.8 | 24.1 | 0.00 | 0.00 | 0.00 | 43 | 1003.3 |
| 20260505163016 | 26 | 279 | 14.5 | 27.4 | 0.00 | 0.00 | 0.00 | 40 | 1003.6 |